sensor_id;sensor_type;location;lat;lon;timestamp;pressure;altitude;pressure_sealevel;temperature;humidity
72157;BME280;60035;52.122;5.406;2023-03-26T00:01:14;100885.88;;;7.25;100.00
72157;BME280;60035;52.122;5.406;2023-03-26T00:03:42;100886.69;;;7.26;100.00
72157;BME280;60035;52.122;5.406;2023-03-26T00:06:14;100887.53;;;7.28;100.00
72157;BME280;60035;52.122;5.406;2023-03-26T00:08:43;100887.56;;;7.26;100.00
72157;BME280;60035;52.122;5.406;2023-03-26T00:11:12;100882.47;;;7.25;100.00
72157;BME280;60035;52.122;5.406;2023-03-26T00:13:39;100888.41;;;7.25;100.00
72157;BME280;60035;52.122;5.406;2023-03-26T00:16:11;100884.19;;;7.24;100.00
72157;BME280;60035;52.122;5.406;2023-03-26T00:18:42;100879.91;;;7.25;100.00
72157;BME280;60035;52.122;5.406;2023-03-26T00:21:12;100882.47;;;7.25;100.00
72157;BME280;60035;52.122;5.406;2023-03-26T00:23:40;100879.06;;;7.26;100.00
72157;BME280;60035;52.122;5.406;2023-03-26T00:26:07;100874.03;;;7.23;100.00
72157;BME280;60035;52.122;5.406;2023-03-26T00:28:38;100870.59;;;7.22;100.00
72157;BME280;60035;52.122;5.406;2023-03-26T00:31:08;100876.59;;;7.20;100.00
72157;BME280;60035;52.122;5.406;2023-03-26T00:33:38;100883.41;;;7.19;100.00
72157;BME280;60035;52.122;5.406;2023-03-26T00:36:09;100875.72;;;7.21;100.00
72157;BME280;60035;52.122;5.406;2023-03-26T00:38:37;100875.75;;;7.19;100.00
72157;BME280;60035;52.122;5.406;2023-03-26T00:41:10;100855.41;;;7.17;100.00
72157;BME280;60035;52.122;5.406;2023-03-26T00:43:44;100857.13;;;7.17;100.00
72157;BME280;60035;52.122;5.406;2023-03-26T00:46:11;100850.31;;;7.17;100.00
72157;BME280;60035;52.122;5.406;2023-03-26T00:48:38;100849.50;;;7.17;100.00
72157;BME280;60035;52.122;5.406;2023-03-26T00:51:13;100850.41;;;7.11;100.00
72157;BME280;60035;52.122;5.406;2023-03-26T00:53:42;100847.88;;;7.10;100.00
72157;BME280;60035;52.122;5.406;2023-03-26T00:56:10;100842.78;;;7.10;100.00
72157;BME280;60035;52.122;5.406;2023-03-26T00:58:38;100830.06;;;7.10;100.00
72157;BME280;60035;52.122;5.406;2023-03-26T01:01:08;100847.06;;;7.08;100.00
72157;BME280;60035;52.122;5.406;2023-03-26T01:03:36;100842.88;;;7.05;100.00
72157;BME280;60035;52.122;5.406;2023-03-26T01:06:26;100841.97;;;7.08;100.00
72157;BME280;60035;52.122;5.406;2023-03-26T01:09:10;100839.44;;;7.06;100.00
72157;BME280;60035;52.122;5.406;2023-03-26T01:11:38;100840.28;;;7.08;100.00
72157;BME280;60035;52.122;5.406;2023-03-26T01:14:17;100829.22;;;7.08;100.00
72157;BME280;60035;52.122;5.406;2023-03-26T01:16:56;100825.84;;;7.09;100.00
72157;BME280;60035;52.122;5.406;2023-03-26T01:19:29;100827.50;;;7.11;100.00
72157;BME280;60035;52.122;5.406;2023-03-26T01:21:59;100820.75;;;7.09;100.00
72157;BME280;60035;52.122;5.406;2023-03-26T01:24:26;100801.22;;;7.08;100.00
72157;BME280;60035;52.122;5.406;2023-03-26T01:27:30;100806.34;;;7.06;100.00
72157;BME280;60035;52.122;5.406;2023-03-26T01:32:52;100792.84;;;7.01;100.00
72157;BME280;60035;52.122;5.406;2023-03-26T01:46:05;100781.63;;;7.13;100.00
72157;BME280;60035;52.122;5.406;2023-03-26T01:48:39;100778.22;;;7.14;100.00
72157;BME280;60035;52.122;5.406;2023-03-26T01:51:09;100778.22;;;7.14;100.00
72157;BME280;60035;52.122;5.406;2023-03-26T01:53:41;100776.53;;;7.13;100.00
72157;BME280;60035;52.122;5.406;2023-03-26T02:07:06;100752.88;;;7.06;100.00
72157;BME280;60035;52.122;5.406;2023-03-26T02:09:47;100745.25;;;7.06;100.00
72157;BME280;60035;52.122;5.406;2023-03-26T02:12:15;100743.59;;;7.04;100.00
72157;BME280;60035;52.122;5.406;2023-03-26T02:14:48;100741.94;;;7.01;100.00
72157;BME280;60035;52.122;5.406;2023-03-26T02:17:15;100741.13;;;6.99;100.00
72157;BME280;60035;52.122;5.406;2023-03-26T02:19:44;100730.09;;;6.98;100.00
72157;BME280;60035;52.122;5.406;2023-03-26T02:22:11;100735.25;;;6.95;100.00
72157;BME280;60035;52.122;5.406;2023-03-26T02:24:41;100732.66;;;6.97;100.00
72157;BME280;60035;52.122;5.406;2023-03-26T02:27:08;100721.63;;;6.98;100.00
72157;BME280;60035;52.122;5.406;2023-03-26T02:29:38;100724.13;;;6.99;100.00
72157;BME280;60035;52.122;5.406;2023-03-26T02:32:06;100719.03;;;7.03;100.00
72157;BME280;60035;52.122;5.406;2023-03-26T02:34:36;100728.38;;;7.00;100.00
72157;BME280;60035;52.122;5.406;2023-03-26T02:37:02;100720.78;;;6.97;100.00
72157;BME280;60035;52.122;5.406;2023-03-26T02:39:28;100719.06;;;6.99;100.00
72157;BME280;60035;52.122;5.406;2023-03-26T02:41:55;100711.41;;;6.99;100.00
72157;BME280;60035;52.122;5.406;2023-03-26T02:44:23;100716.47;;;7.03;100.00
72157;BME280;60035;52.122;5.406;2023-03-26T02:46:49;100707.97;;;7.02;100.00
72157;BME280;60035;52.122;5.406;2023-03-26T02:49:16;100712.25;;;7.02;100.00
72157;BME280;60035;52.122;5.406;2023-03-26T02:51:43;100708.84;;;7.03;100.00
72157;BME280;60035;52.122;5.406;2023-03-26T02:57:19;100704.56;;;7.03;100.00
72157;BME280;60035;52.122;5.406;2023-03-26T02:59:46;100702.00;;;7.05;100.00
72157;BME280;60035;52.122;5.406;2023-03-26T03:02:16;100708.84;;;7.01;100.00
72157;BME280;60035;52.122;5.406;2023-03-26T03:04:47;100704.53;;;7.05;100.00
72157;BME280;60035;52.122;5.406;2023-03-26T03:07:14;100700.22;;;7.10;100.00
72157;BME280;60035;52.122;5.406;2023-03-26T03:09:41;100693.38;;;7.13;100.00
72157;BME280;60035;52.122;5.406;2023-03-26T03:12:07;100691.63;;;7.15;100.00
72157;BME280;60035;52.122;5.406;2023-03-26T03:14:36;100690.69;;;7.20;100.00
72157;BME280;60035;52.122;5.406;2023-03-26T03:17:03;100690.63;;;7.24;100.00
72157;BME280;60035;52.122;5.406;2023-03-26T03:19:29;100691.41;;;7.28;100.00
72157;BME280;60035;52.122;5.406;2023-03-26T03:21:56;100690.50;;;7.32;100.00
72157;BME280;60035;52.122;5.406;2023-03-26T03:24:25;100684.47;;;7.36;100.00
72157;BME280;60035;52.122;5.406;2023-03-26T03:26:52;100685.25;;;7.38;100.00
72157;BME280;60035;52.122;5.406;2023-03-26T03:29:22;100683.50;;;7.42;100.00
72157;BME280;60035;52.122;5.406;2023-03-26T03:31:49;100677.50;;;7.44;100.00
72157;BME280;60035;52.122;5.406;2023-03-26T03:34:22;100672.34;;;7.47;100.00
72157;BME280;60035;52.122;5.406;2023-03-26T03:36:48;100672.31;;;7.50;100.00
72157;BME280;60035;52.122;5.406;2023-03-26T03:39:15;100668.91;;;7.52;100.00
72157;BME280;60035;52.122;5.406;2023-03-26T03:41:42;100677.34;;;7.54;100.00
72157;BME280;60035;52.122;5.406;2023-03-26T03:44:09;100673.91;;;7.55;100.00
72157;BME280;60035;52.122;5.406;2023-03-26T03:46:36;100668.75;;;7.58;100.00
72157;BME280;60035;52.122;5.406;2023-03-26T03:49:03;100667.81;;;7.62;100.00
72157;BME280;60035;52.122;5.406;2023-03-26T03:51:29;100671.25;;;7.61;100.00
72157;BME280;60035;52.122;5.406;2023-03-26T03:54:01;100678.91;;;7.61;100.00
72157;BME280;60035;52.122;5.406;2023-03-26T03:56:28;100672.13;;;7.60;100.00
72157;BME280;60035;52.122;5.406;2023-03-26T03:58:55;100667.84;;;7.60;100.00
72157;BME280;60035;52.122;5.406;2023-03-26T04:01:23;100669.50;;;7.63;100.00
72157;BME280;60035;52.122;5.406;2023-03-26T04:03:59;100665.28;;;7.62;100.00
72157;BME280;60035;52.122;5.406;2023-03-26T04:06:26;100661.91;;;7.61;100.00
72157;BME280;60035;52.122;5.406;2023-03-26T04:08:55;100656.75;;;7.63;100.00
72157;BME280;60035;52.122;5.406;2023-03-26T04:11:22;100655.91;;;7.64;100.00
72157;BME280;60035;52.122;5.406;2023-03-26T04:13:57;100644.88;;;7.63;100.00
72157;BME280;60035;52.122;5.406;2023-03-26T04:16:24;100639.75;;;7.65;100.00
72157;BME280;60035;52.122;5.406;2023-03-26T04:18:51;100638.06;;;7.64;100.00
72157;BME280;60035;52.122;5.406;2023-03-26T04:21:18;100632.88;;;7.67;100.00
72157;BME280;60035;52.122;5.406;2023-03-26T04:23:44;100634.56;;;7.68;100.00
72157;BME280;60035;52.122;5.406;2023-03-26T04:26:14;100633.69;;;7.71;100.00
72157;BME280;60035;52.122;5.406;2023-03-26T04:28:44;100631.16;;;7.69;100.00
72157;BME280;60035;52.122;5.406;2023-03-26T04:31:16;100624.38;;;7.68;100.00
72157;BME280;60035;52.122;5.406;2023-03-26T04:33:45;100621.88;;;7.66;100.00
72157;BME280;60035;52.122;5.406;2023-03-26T04:36:13;100620.19;;;7.65;100.00
72157;BME280;60035;52.122;5.406;2023-03-26T04:38:44;100610.84;;;7.66;100.00
72157;BME280;60035;52.122;5.406;2023-03-26T04:41:12;100605.72;;;7.67;100.00
72157;BME280;60035;52.122;5.406;2023-03-26T04:43:39;100607.41;;;7.67;100.00
72157;BME280;60035;52.122;5.406;2023-03-26T04:46:13;100598.84;;;7.70;100.00
72157;BME280;60035;52.122;5.406;2023-03-26T04:48:39;100597.19;;;7.68;100.00
72157;BME280;60035;52.122;5.406;2023-03-26T04:51:06;100589.53;;;7.68;100.00
72157;BME280;60035;52.122;5.406;2023-03-26T04:53:33;100586.94;;;7.72;100.00
72157;BME280;60035;52.122;5.406;2023-03-26T04:59:10;100578.47;;;7.70;100.00
72157;BME280;60035;52.122;5.406;2023-03-26T05:01:40;100576.78;;;7.68;100.00
72157;BME280;60035;52.122;5.406;2023-03-26T05:04:09;100578.50;;;7.68;100.00
72157;BME280;60035;52.122;5.406;2023-03-26T05:06:36;100563.22;;;7.68;100.00
72157;BME280;60035;52.122;5.406;2023-03-26T05:09:03;100563.19;;;7.70;100.00
72157;BME280;60035;52.122;5.406;2023-03-26T05:11:29;100562.34;;;7.69;100.00
72157;BME280;60035;52.122;5.406;2023-03-26T05:13:56;100560.63;;;7.70;100.00
72157;BME280;60035;52.122;5.406;2023-03-26T05:16:23;100559.81;;;7.69;100.00
72157;BME280;60035;52.122;5.406;2023-03-26T05:18:50;100554.63;;;7.72;100.00
72157;BME280;60035;52.122;5.406;2023-03-26T05:21:17;100553.84;;;7.70;100.00
72157;BME280;60035;52.122;5.406;2023-03-26T05:23:43;100554.66;;;7.71;100.00
72157;BME280;60035;52.122;5.406;2023-03-26T05:26:21;100557.22;;;7.71;100.00
72157;BME280;60035;52.122;5.406;2023-03-26T05:28:48;100552.09;;;7.72;100.00
72157;BME280;60035;52.122;5.406;2023-03-26T05:31:18;100540.16;;;7.74;100.00
72157;BME280;60035;52.122;5.406;2023-03-26T05:33:46;100546.03;;;7.76;100.00
72157;BME280;60035;52.122;5.406;2023-03-26T05:36:14;100540.16;;;7.74;100.00
72157;BME280;60035;52.122;5.406;2023-03-26T05:38:42;100534.25;;;7.72;100.00
72157;BME280;60035;52.122;5.406;2023-03-26T05:41:17;100534.25;;;7.72;100.00
72157;BME280;60035;52.122;5.406;2023-03-26T05:43:44;100522.28;;;7.76;100.00
72157;BME280;60035;52.122;5.406;2023-03-26T05:46:12;100520.56;;;7.76;100.00
72157;BME280;60035;52.122;5.406;2023-03-26T05:48:39;100515.47;;;7.76;100.00
72157;BME280;60035;52.122;5.406;2023-03-26T05:51:06;100517.09;;;7.79;100.00
72157;BME280;60035;52.122;5.406;2023-03-26T05:53:33;100517.09;;;7.79;100.00
72157;BME280;60035;52.122;5.406;2023-03-26T05:56:03;100512.81;;;7.81;100.00
72157;BME280;60035;52.122;5.406;2023-03-26T05:58:32;100520.50;;;7.79;100.00
72157;BME280;60035;52.122;5.406;2023-03-26T06:01:04;100518.00;;;7.76;100.00
72157;BME280;60035;52.122;5.406;2023-03-26T06:03:32;100511.22;;;7.77;100.00
72157;BME280;60035;52.122;5.406;2023-03-26T06:06:07;100507.78;;;7.78;100.00
72157;BME280;60035;52.122;5.406;2023-03-26T06:08:34;100498.44;;;7.78;100.00
72157;BME280;60035;52.122;5.406;2023-03-26T06:11:03;100490.75;;;7.80;100.00
72157;BME280;60035;52.122;5.406;2023-03-26T06:13:30;100490.69;;;7.81;100.00
72157;BME280;60035;52.122;5.406;2023-03-26T06:16:04;100486.47;;;7.82;100.00
72157;BME280;60035;52.122;5.406;2023-03-26T06:18:31;100484.75;;;7.82;100.00
72157;BME280;60035;52.122;5.406;2023-03-26T06:20:58;100482.19;;;7.82;100.00
72157;BME280;60035;52.122;5.406;2023-03-26T06:23:24;100478.78;;;7.83;100.00
72157;BME280;60035;52.122;5.406;2023-03-26T06:25:58;100479.50;;;7.87;100.00
72157;BME280;60035;52.122;5.406;2023-03-26T06:28:25;100479.50;;;7.89;100.00
72157;BME280;60035;52.122;5.406;2023-03-26T06:30:51;100476.88;;;7.92;100.00
72157;BME280;60035;52.122;5.406;2023-03-26T06:33:19;100477.69;;;7.94;100.00
72157;BME280;60035;52.122;5.406;2023-03-26T06:35:49;100475.00;;;7.98;100.00
72157;BME280;60035;52.122;5.406;2023-03-26T06:38:16;100472.41;;;8.00;100.00
72157;BME280;60035;52.122;5.406;2023-03-26T06:40:43;100469.81;;;8.01;100.00
72157;BME280;60035;52.122;5.406;2023-03-26T06:43:09;100475.88;;;7.97;100.00
72157;BME280;60035;52.122;5.406;2023-03-26T06:45:50;100469.94;;;7.97;100.00
72157;BME280;60035;52.122;5.406;2023-03-26T06:48:17;100470.72;;;7.99;100.00
72157;BME280;60035;52.122;5.406;2023-03-26T06:50:43;100469.03;;;7.99;100.00
72157;BME280;60035;52.122;5.406;2023-03-26T06:53:10;100473.25;;;8.00;100.00
72157;BME280;60035;52.122;5.406;2023-03-26T06:55:41;100473.19;;;8.04;100.00
72157;BME280;60035;52.122;5.406;2023-03-26T06:58:10;100470.59;;;8.05;100.00
72157;BME280;60035;52.122;5.406;2023-03-26T07:00:38;100469.72;;;8.06;100.00
72157;BME280;60035;52.122;5.406;2023-03-26T07:03:05;100473.94;;;8.07;100.00
72157;BME280;60035;52.122;5.406;2023-03-26T07:05:33;100475.59;;;8.08;100.00
72157;BME280;60035;52.122;5.406;2023-03-26T07:07:59;100467.88;;;8.11;100.00
72157;BME280;60035;52.122;5.406;2023-03-26T07:10:26;100472.13;;;8.11;100.00
72157;BME280;60035;52.122;5.406;2023-03-26T07:12:52;100466.97;;;8.14;100.00
72157;BME280;60035;52.122;5.406;2023-03-26T07:15:21;100467.84;;;8.13;100.00
72157;BME280;60035;52.122;5.406;2023-03-26T07:17:49;100469.53;;;8.14;100.00
72157;BME280;60035;52.122;5.406;2023-03-26T07:20:16;100465.25;;;8.14;100.00
72157;BME280;60035;52.122;5.406;2023-03-26T07:22:42;100461.03;;;8.13;100.00
72157;BME280;60035;52.122;5.406;2023-03-26T07:25:10;100465.22;;;8.16;100.00
72157;BME280;60035;52.122;5.406;2023-03-26T07:35:39;100462.34;;;8.28;100.00
72157;BME280;60035;52.122;5.406;2023-03-26T07:45:55;100460.69;;;8.27;100.00
72157;BME280;60035;52.122;5.406;2023-03-26T07:48:24;100459.81;;;8.27;100.00
72157;BME280;60035;52.122;5.406;2023-03-26T07:50:55;100454.66;;;8.30;100.00
72157;BME280;60035;52.122;5.406;2023-03-26T07:53:22;100452.16;;;8.28;100.00
72157;BME280;60035;52.122;5.406;2023-03-26T08:04:21;100446.72;;;8.41;100.00
72157;BME280;60035;52.122;5.406;2023-03-26T08:06:59;100450.06;;;8.43;100.00
72157;BME280;60035;52.122;5.406;2023-03-26T08:12:15;100445.69;;;8.49;100.00
72157;BME280;60035;52.122;5.406;2023-03-26T08:15:03;100448.25;;;8.48;100.00
72157;BME280;60035;52.122;5.406;2023-03-26T08:17:45;100450.69;;;8.53;100.00
72157;BME280;60035;52.122;5.406;2023-03-26T08:23:21;100443.84;;;8.53;100.00
72157;BME280;60035;52.122;5.406;2023-03-26T08:25:59;100440.47;;;8.53;100.00
72157;BME280;60035;52.122;5.406;2023-03-26T08:31:29;100443.03;;;8.53;100.00
72157;BME280;60035;52.122;5.406;2023-03-26T08:33:59;100446.38;;;8.55;100.00
72157;BME280;60035;52.122;5.406;2023-03-26T08:36:25;100443.03;;;8.53;100.00
72157;BME280;60035;52.122;5.406;2023-03-26T08:38:53;100444.75;;;8.52;100.00
72157;BME280;60035;52.122;5.406;2023-03-26T08:55:50;100446.72;;;8.41;100.00
72157;BME280;60035;52.122;5.406;2023-03-26T08:58:35;100450.19;;;8.38;100.00
72157;BME280;60035;52.122;5.406;2023-03-26T09:04:09;100447.97;;;8.26;100.00
72157;BME280;60035;52.122;5.406;2023-03-26T09:24:42;100448.00;;;7.91;100.00
72157;BME280;60035;52.122;5.406;2023-03-26T09:41:03;100452.06;;;7.98;100.00
72157;BME280;60035;52.122;5.406;2023-03-26T09:46:14;100457.13;;;8.00;100.00
72157;BME280;60035;52.122;5.406;2023-03-26T09:52:54;100461.44;;;7.98;100.00
72157;BME280;60035;52.122;5.406;2023-03-26T10:31:25;100483.75;;;7.88;100.00
72157;BME280;60035;52.122;5.406;2023-03-26T10:34:25;100486.25;;;7.90;100.00
72157;BME280;60035;52.122;5.406;2023-03-26T10:37:09;100489.66;;;7.90;100.00
72157;BME280;60035;52.122;5.406;2023-03-26T10:43:10;100489.75;;;7.86;100.00
72157;BME280;60035;52.122;5.406;2023-03-26T10:53:35;100495.56;;;7.91;100.00
72157;BME280;60035;52.122;5.406;2023-03-26T10:56:27;100498.25;;;7.86;100.00
72157;BME280;60035;52.122;5.406;2023-03-26T10:59:10;100500.97;;;7.78;100.00
72157;BME280;60035;52.122;5.406;2023-03-26T11:04:28;100510.44;;;7.73;100.00
72157;BME280;60035;52.122;5.406;2023-03-26T11:15:41;100513.75;;;7.77;100.00
72157;BME280;60035;52.122;5.406;2023-03-26T11:18:15;100517.09;;;7.79;100.00
72157;BME280;60035;52.122;5.406;2023-03-26T11:20:55;100516.34;;;7.75;100.00
72157;BME280;60035;52.122;5.406;2023-03-26T11:26:44;100523.09;;;7.76;100.00
72157;BME280;60035;52.122;5.406;2023-03-26T11:32:15;100527.47;;;7.71;100.00
72157;BME280;60035;52.122;5.406;2023-03-26T11:35:02;100531.56;;;7.78;100.00
72157;BME280;60035;52.122;5.406;2023-03-26T11:37:37;100544.13;;;7.86;100.00
72157;BME280;60035;52.122;5.406;2023-03-26T11:40:17;100534.63;;;7.93;100.00
72157;BME280;60035;52.122;5.406;2023-03-26T11:42:49;100540.59;;;7.92;100.00
72157;BME280;60035;52.122;5.406;2023-03-26T11:45:22;100546.56;;;7.91;100.00
72157;BME280;60035;52.122;5.406;2023-03-26T11:47:57;100544.13;;;7.86;100.00
72157;BME280;60035;52.122;5.406;2023-03-26T11:50:29;100551.13;;;7.76;100.00
72157;BME280;60035;52.122;5.406;2023-03-26T11:53:05;100551.25;;;7.72;100.00
72157;BME280;60035;52.122;5.406;2023-03-26T11:55:40;100554.72;;;7.69;100.00
72157;BME280;60035;52.122;5.406;2023-03-26T11:58:28;100554.78;;;7.64;100.00
72157;BME280;60035;52.122;5.406;2023-03-26T12:00:56;100562.56;;;7.60;100.00
72157;BME280;60035;52.122;5.406;2023-03-26T12:03:23;100554.94;;;7.58;100.00
72157;BME280;60035;52.122;5.406;2023-03-26T12:08:37;100554.66;;;7.71;100.00
72157;BME280;60035;52.122;5.406;2023-03-26T12:11:08;100563.88;;;7.76;100.00
72157;BME280;60035;52.122;5.406;2023-03-26T12:13:42;100564.56;;;7.84;100.00
72157;BME280;60035;52.122;5.406;2023-03-26T12:16:13;100553.25;;;7.95;100.00
72157;BME280;60035;52.122;5.406;2023-03-26T12:18:42;100556.63;;;7.97;100.00
72157;BME280;60035;52.122;5.406;2023-03-26T12:25:18;100563.38;;;7.99;100.00
72157;BME280;60035;52.122;5.406;2023-03-26T12:30:33;100563.94;;;8.12;100.00
72157;BME280;60035;52.122;5.406;2023-03-26T12:33:04;100578.09;;;8.23;100.00
72157;BME280;60035;52.122;5.406;2023-03-26T12:41:08;100577.84;;;8.35;100.00
72157;BME280;60035;52.122;5.406;2023-03-26T12:43:55;100576.09;;;8.36;100.00
72157;BME280;60035;52.122;5.406;2023-03-26T12:46:44;100585.53;;;8.32;100.00
72157;BME280;60035;52.122;5.406;2023-03-26T12:49:32;100582.06;;;8.36;100.00
72157;BME280;60035;52.122;5.406;2023-03-26T12:52:13;100583.56;;;8.43;100.00
72157;BME280;60035;52.122;5.406;2023-03-26T12:57:19;100592.72;;;8.54;100.00
72157;BME280;60035;52.122;5.406;2023-03-26T13:03:09;100595.19;;;8.57;100.00
72157;BME280;60035;52.122;5.406;2023-03-26T13:11:19;100605.06;;;8.69;100.00
72157;BME280;60035;52.122;5.406;2023-03-26T13:19:19;100601.53;;;8.75;100.00
72157;BME280;60035;52.122;5.406;2023-03-26T13:25:40;100616.72;;;8.79;100.00
72157;BME280;60035;52.122;5.406;2023-03-26T13:31:14;100617.72;;;8.74;100.00
72157;BME280;60035;52.122;5.406;2023-03-26T13:33:56;100631.31;;;8.76;100.00
72157;BME280;60035;52.122;5.406;2023-03-26T13:39:39;100632.38;;;8.67;100.00
72157;BME280;60035;52.122;5.406;2023-03-26T13:45:04;100632.22;;;8.72;100.00
72157;BME280;60035;52.122;5.406;2023-03-26T13:47:38;100636.31;;;8.79;100.00
72157;BME280;60035;52.122;5.406;2023-03-26T13:50:28;100637.91;;;8.83;100.00
72157;BME280;60035;52.122;5.406;2023-03-26T13:53:05;100642.84;;;8.91;100.00
72157;BME280;60035;52.122;5.406;2023-03-26T13:55:38;100640.28;;;8.91;100.00
72157;BME280;60035;52.122;5.406;2023-03-26T14:00:44;100642.53;;;9.02;100.00
72157;BME280;60035;52.122;5.406;2023-03-26T14:03:24;100635.75;;;9.00;100.00
72157;BME280;60035;52.122;5.406;2023-03-26T14:05:56;100646.75;;;9.04;100.00
72157;BME280;60035;52.122;5.406;2023-03-26T14:08:30;100647.56;;;9.06;100.00
72157;BME280;60035;52.122;5.406;2023-03-26T14:11:07;100656.81;;;9.09;100.00
72157;BME280;60035;52.122;5.406;2023-03-26T14:13:50;100661.88;;;9.12;100.00
72157;BME280;60035;52.122;5.406;2023-03-26T14:16:23;100662.75;;;9.11;100.00
72157;BME280;60035;52.122;5.406;2023-03-26T14:19:02;100669.72;;;9.04;100.00
72157;BME280;60035;52.122;5.406;2023-03-26T14:21:56;100673.16;;;9.03;100.00
72157;BME280;60035;52.122;5.406;2023-03-26T14:27:36;100677.84;;;8.86;100.00
72157;BME280;60035;52.122;5.406;2023-03-26T14:38:54;100690.34;;;8.62;100.00
72157;BME280;60035;52.122;5.406;2023-03-26T14:47:18;100711.56;;;8.64;100.00
72157;BME280;60035;52.122;5.406;2023-03-26T14:52:48;100727.03;;;8.58;100.00
72157;BME280;60035;52.122;5.406;2023-03-26T14:55:54;100724.50;;;8.56;100.00
72157;BME280;60035;52.122;5.406;2023-03-26T15:12:38;100755.91;;;8.19;98.63
72157;BME280;60035;52.122;5.406;2023-03-26T15:32:47;100786.84;;;8.46;98.48
72157;BME280;60035;52.122;5.406;2023-03-26T15:35:30;100786.00;;;8.42;96.45
72157;BME280;60035;52.122;5.406;2023-03-26T15:38:39;100788.66;;;8.39;95.06
72157;BME280;60035;52.122;5.406;2023-03-26T15:44:31;100796.41;;;8.33;94.81
72157;BME280;60035;52.122;5.406;2023-03-26T15:55:56;100829.94;;;8.14;91.51
72157;BME280;60035;52.122;5.406;2023-03-26T15:58:25;100838.56;;;8.09;94.63
72157;BME280;60035;52.122;5.406;2023-03-26T16:01:16;100843.81;;;8.01;92.71
72157;BME280;60035;52.122;5.406;2023-03-26T16:04:21;100855.81;;;7.96;93.94
72157;BME280;60035;52.122;5.406;2023-03-26T16:07:13;100867.81;;;7.89;92.99
72157;BME280;60035;52.122;5.406;2023-03-26T16:14:43;100868.94;;;7.74;88.05
72157;BME280;60035;52.122;5.406;2023-03-26T16:17:21;100877.47;;;7.72;89.93
72157;BME280;60035;52.122;5.406;2023-03-26T16:19:58;100887.69;;;7.72;91.34
72157;BME280;60035;52.122;5.406;2023-03-26T16:23:05;100888.53;;;7.71;90.49
72157;BME280;60035;52.122;5.406;2023-03-26T16:25:53;100893.66;;;7.69;89.84
72157;BME280;60035;52.122;5.406;2023-03-26T16:28:26;100897.06;;;7.68;90.07
72157;BME280;60035;52.122;5.406;2023-03-26T16:44:42;100924.53;;;7.50;85.62
72157;BME280;60035;52.122;5.406;2023-03-26T16:53:22;100961.25;;;7.37;82.08
72157;BME280;60035;52.122;5.406;2023-03-26T16:55:56;100959.59;;;7.34;81.05
72157;BME280;60035;52.122;5.406;2023-03-26T16:58:55;100964.72;;;7.31;79.78
72157;BME280;60035;52.122;5.406;2023-03-26T17:04:16;100983.22;;;7.44;80.35
72157;BME280;60035;52.122;5.406;2023-03-26T17:09:36;100984.28;;;7.29;80.58
72157;BME280;60035;52.122;5.406;2023-03-26T17:22:49;101011.78;;;7.01;78.28
72157;BME280;60035;52.122;5.406;2023-03-26T17:25:24;101031.38;;;6.94;75.92
72157;BME280;60035;52.122;5.406;2023-03-26T17:31:26;101038.28;;;6.84;77.37
72157;BME280;60035;52.122;5.406;2023-03-26T17:33:51;101037.47;;;6.82;77.41
72157;BME280;60035;52.122;5.406;2023-03-26T17:36:21;101055.31;;;6.79;77.39
72157;BME280;60035;52.122;5.406;2023-03-26T17:38:57;101057.03;;;6.77;77.73
72157;BME280;60035;52.122;5.406;2023-03-26T17:44:48;101071.47;;;6.75;79.74
72157;BME280;60035;52.122;5.406;2023-03-26T17:47:39;101078.31;;;6.70;77.66
72157;BME280;60035;52.122;5.406;2023-03-26T17:50:32;101080.91;;;6.65;77.18
72157;BME280;60035;52.122;5.406;2023-03-26T17:53:03;101086.03;;;6.61;77.24
72157;BME280;60035;52.122;5.406;2023-03-26T17:55:35;101090.31;;;6.56;76.44
72157;BME280;60035;52.122;5.406;2023-03-26T17:58:06;101091.19;;;6.53;76.12
72157;BME280;60035;52.122;5.406;2023-03-26T18:00:44;101103.94;;;6.50;77.31
72157;BME280;60035;52.122;5.406;2023-03-26T18:05:52;101108.25;;;6.43;76.49
72157;BME280;60035;52.122;5.406;2023-03-26T18:08:39;101113.34;;;6.39;77.38
72157;BME280;60035;52.122;5.406;2023-03-26T18:11:22;101124.44;;;6.31;77.40
72157;BME280;60035;52.122;5.406;2023-03-26T18:16:59;101137.22;;;6.19;78.63
72157;BME280;60035;52.122;5.406;2023-03-26T18:19:26;101138.13;;;6.12;77.61
72157;BME280;60035;52.122;5.406;2023-03-26T18:21:55;101138.97;;;6.09;77.55
72157;BME280;60035;52.122;5.406;2023-03-26T18:24:35;101136.44;;;6.08;77.08
72157;BME280;60035;52.122;5.406;2023-03-26T18:27:06;101153.41;;;6.06;76.31
72157;BME280;60035;52.122;5.406;2023-03-26T18:29:43;101157.66;;;6.05;76.80
72157;BME280;60035;52.122;5.406;2023-03-26T18:34:39;101177.16;;;6.06;76.10
72157;BME280;60035;52.122;5.406;2023-03-26T18:42:42;101187.28;;;6.11;76.92
72157;BME280;60035;52.122;5.406;2023-03-26T18:45:22;101194.06;;;6.12;76.87
72157;BME280;60035;52.122;5.406;2023-03-26T18:47:55;101204.22;;;6.12;77.52
72157;BME280;60035;52.122;5.406;2023-03-26T18:50:27;101211.84;;;6.12;77.03
72157;BME280;60035;52.122;5.406;2023-03-26T18:52:56;101222.88;;;6.14;77.99
72157;BME280;60035;52.122;5.406;2023-03-26T18:55:28;101221.19;;;6.13;78.53
72157;BME280;60035;52.122;5.406;2023-03-26T18:57:56;101228.81;;;6.13;79.04
72157;BME280;60035;52.122;5.406;2023-03-26T19:00:24;101244.06;;;6.11;79.63
72157;BME280;60035;52.122;5.406;2023-03-26T19:03:13;101246.63;;;6.05;79.38
72157;BME280;60035;52.122;5.406;2023-03-26T19:05:43;101244.06;;;5.97;79.28
72157;BME280;60035;52.122;5.406;2023-03-26T19:08:09;101259.34;;;5.90;79.07
72157;BME280;60035;52.122;5.406;2023-03-26T19:10:37;101252.59;;;5.84;79.38
72157;BME280;60035;52.122;5.406;2023-03-26T19:13:03;101260.22;;;5.78;80.01
72157;BME280;60035;52.122;5.406;2023-03-26T19:15:34;101268.72;;;5.74;80.28
72157;BME280;60035;52.122;5.406;2023-03-26T19:18:03;101259.41;;;5.73;80.66